Time;durP1;ratioP1;P1;durP2;ratioP2;P2;SDS_P1;SDS_P2;PMS_P1;PMS_P2;Temp;Humidity;BMP_temperature;BMP_pressure;BME280_temperature;BME280_humidity;BME280_pressure;Samples;Min_cycle;Max_cycle;Signal;HPM_P1;HPM_P2
2023/07/02 00:00:13;;;;;;;5.00;3.90;;;;;;;19.50;61.21;99410.08;105303;1259;69261;-66
2023/07/02 00:03:01;;;;;;;5.80;3.90;;;;;;;19.51;61.08;99408.15;105283;1255;69263;-68
2023/07/02 00:05:30;;;;;;;6.40;3.90;;;;;;;19.53;61.04;99405.16;105321;1254;74184;-66
2023/07/02 00:07:59;;;;;;;7.30;4.00;;;;;;;19.54;60.92;99405.42;105344;1258;83830;-66
2023/07/02 00:10:27;;;;;;;5.60;3.70;;;;;;;19.56;60.93;99405.27;105285;1257;72761;-66
2023/07/02 00:12:56;;;;;;;9.50;4.20;;;;;;;19.57;60.82;99402.66;105293;1259;69656;-68
2023/07/02 00:15:24;;;;;;;5.30;3.60;;;;;;;19.58;60.87;99403.46;105265;1257;69188;-69
2023/07/02 00:17:52;;;;;;;6.00;3.40;;;;;;;19.58;60.87;99400.98;105284;1260;73287;-70
2023/07/02 00:20:21;;;;;;;4.90;3.40;;;;;;;19.57;60.83;99401.39;105336;1259;83667;-66
2023/07/02 00:22:49;;;;;;;9.80;3.80;;;;;;;19.56;60.87;99401.86;105267;1258;72824;-68
2023/07/02 00:25:18;;;;;;;4.00;3.20;;;;;;;19.54;60.96;99401.70;105345;1254;69124;-66
2023/07/02 00:27:46;;;;;;;6.10;3.10;;;;;;;19.52;61.03;99400.50;105281;1258;69675;-66
2023/07/02 00:30:14;;;;;;;5.60;3.60;;;;;;;19.50;61.01;99403.14;105288;1257;72829;-67
2023/07/02 00:32:43;;;;;;;5.80;3.60;;;;;;;19.48;61.13;99402.29;105311;1259;82377;-68
2023/07/02 00:35:12;;;;;;;5.40;3.30;;;;;;;19.46;61.23;99407.37;105314;1259;73278;-67
2023/07/02 00:37:41;;;;;;;5.60;3.40;;;;;;;19.45;61.21;99408.00;105345;1259;69201;-68
2023/07/02 00:40:10;;;;;;;4.50;3.50;;;;;;;19.44;61.26;99408.45;105291;1265;69104;-66
2023/07/02 00:42:38;;;;;;;4.20;3.40;;;;;;;19.43;61.29;99412.45;105312;1260;72088;-66
2023/07/02 00:45:08;;;;;;;4.80;3.70;;;;;;;19.44;61.27;99413.13;105369;1260;83697;-66
2023/07/02 00:47:37;;;;;;;;;;;;;;;19.44;61.31;99412.94;105297;1259;73779;-66
2023/07/02 00:50:06;;;;;;;6.50;3.30;;;;;;;19.44;61.46;99409.32;105291;1259;69207;-68
2023/07/02 00:52:35;;;;;;;2.90;2.10;;;;;;;19.45;61.66;99411.53;105338;1259;69227;-67
2023/07/02 00:55:04;;;;;;;3.60;2.10;;;;;;;19.47;61.96;99409.94;105342;1254;73943;-65
2023/07/02 00:57:33;;;;;;;3.70;1.70;;;;;;;19.49;62.18;99409.61;105369;1258;83134;-67
2023/07/02 01:00:02;;;;;;;4.90;2.10;;;;;;;19.51;62.33;99409.83;105304;1258;72778;-68
2023/07/02 01:02:32;;;;;;;4.80;1.80;;;;;;;19.52;62.50;99408.66;105295;1267;70095;-65
2023/07/02 01:05:00;;;;;;;3.60;1.80;;;;;;;19.52;62.63;99410.56;105346;1259;69213;-67
2023/07/02 01:07:29;;;;;;;2.00;1.50;;;;;;;19.52;62.66;99411.30;105319;1256;72944;-67
2023/07/02 01:09:58;;;;;;;3.20;1.70;;;;;;;19.52;62.92;99414.70;105259;1260;82623;-67
2023/07/02 01:12:27;;;;;;;3.40;1.70;;;;;;;19.48;63.20;99412.41;105322;1260;73889;-68
2023/07/02 01:14:59;;;;;;;3.50;1.50;;;;;;;19.41;63.58;99411.19;105316;1254;69195;-69
2023/07/02 01:17:37;;;;;;;3.60;1.50;;;;;;;19.34;64.04;99408.79;105303;1255;69693;-71
2023/07/02 01:20:08;;;;;;;2.30;1.60;;;;;;;19.29;64.41;99409.58;105331;1259;73763;-67
2023/07/02 01:22:37;;;;;;;2.30;1.30;;;;;;;19.26;64.61;99404.63;105294;1258;83357;-66
2023/07/02 01:25:06;;;;;;;3.30;1.60;;;;;;;19.20;64.96;99403.52;105348;1259;73712;-69
2023/07/02 01:27:37;;;;;;;3.90;1.50;;;;;;;19.17;65.28;99403.45;105331;1255;69177;-66
2023/07/02 01:30:07;;;;;;;3.40;1.50;;;;;;;19.12;65.57;99405.82;105331;1258;69137;-64
2023/07/02 01:32:38;;;;;;;1.90;1.10;;;;;;;19.07;65.98;99404.67;105315;1258;72786;-66
2023/07/02 01:35:08;;;;;;;2.10;1.50;;;;;;;19.02;66.17;99405.95;105269;1259;83394;-66
2023/07/02 01:37:38;;;;;;;1.60;1.50;;;;;;;18.93;66.77;99410.31;105322;1258;72681;-68
2023/07/02 01:40:08;;;;;;;3.30;1.20;;;;;;;18.81;67.02;99407.83;105308;1260;69100;-64
2023/07/02 01:42:39;;;;;;;2.80;1.50;;;;;;;18.64;67.60;99405.18;105325;1258;69161;-66
2023/07/02 01:45:08;;;;;;;1.30;1.00;;;;;;;18.45;68.33;99401.54;105288;1260;74047;-64
2023/07/02 01:47:39;;;;;;;2.60;1.20;;;;;;;18.27;69.03;99409.94;105365;1259;83383;-66
2023/07/02 01:50:12;;;;;;;3.90;1.10;;;;;;;18.16;69.89;99413.20;105307;1255;72768;-62
2023/07/02 01:52:41;;;;;;;1.90;1.00;;;;;;;18.07;70.61;99416.77;105184;1260;69278;-63
2023/07/02 01:55:09;;;;;;;3.30;1.20;;;;;;;17.99;71.11;99415.33;105328;1258;69148;-66
2023/07/02 01:57:38;;;;;;;2.60;1.20;;;;;;;17.93;71.54;99415.48;105349;1256;73938;-66
2023/07/02 02:00:08;;;;;;;2.60;1.20;;;;;;;17.87;72.14;99416.17;105246;1260;83248;-68
2023/07/02 02:02:43;;;;;;;2.30;1.10;;;;;;;17.83;72.62;99415.05;105299;1257;73689;-67
2023/07/02 02:05:12;;;;;;;3.00;1.30;;;;;;;17.79;72.89;99415.52;105339;1258;69097;-67
2023/07/02 02:07:41;;;;;;;1.30;1.00;;;;;;;17.76;73.34;99414.19;105319;1259;69181;-67
2023/07/02 02:10:10;;;;;;;2.30;1.00;;;;;;;17.74;73.67;99414.54;105344;1258;74406;-67
2023/07/02 02:12:38;;;;;;;2.30;1.40;;;;;;;17.72;73.68;99415.55;105207;1260;82675;-70
2023/07/02 02:15:08;;;;;;;1.70;1.10;;;;;;;17.71;73.97;99414.27;105229;1258;73584;-66
2023/07/02 02:17:36;;;;;;;2.10;1.00;;;;;;;17.69;74.36;99417.19;105188;1256;69204;-70
2023/07/02 02:20:08;;;;;;;3.10;1.20;;;;;;;17.69;74.57;99415.35;105256;1258;69148;-70
2023/07/02 02:22:36;;;;;;;3.40;1.40;;;;;;;17.67;74.82;99418.67;105182;1260;73389;-69
2023/07/02 02:25:05;;;;;;;2.70;1.20;;;;;;;17.66;75.24;99416.48;105241;1258;82443;-66
2023/07/02 02:27:34;;;;;;;1.40;1.20;;;;;;;17.64;75.45;99417.14;105338;1266;73446;-66
2023/07/02 02:30:04;;;;;;;3.70;1.20;;;;;;;17.63;75.56;99425.20;105337;1259;69139;-66
2023/07/02 02:32:33;;;;;;;1.90;1.30;;;;;;;17.61;75.74;99421.25;105186;1259;69254;-65
2023/07/02 02:35:03;;;;;;;3.00;1.30;;;;;;;17.59;76.00;99423.90;105226;1259;72770;-66
2023/07/02 02:37:34;;;;;;;2.50;1.30;;;;;;;17.56;76.17;99420.98;105301;1255;83129;-63
2023/07/02 02:40:05;;;;;;;2.60;1.40;;;;;;;17.53;76.39;99418.33;105251;1255;74280;-66
2023/07/02 02:42:34;;;;;;;2.60;1.30;;;;;;;17.52;76.39;99421.47;105292;1261;69099;-63
2023/07/02 02:45:03;;;;;;;3.30;1.40;;;;;;;17.50;76.67;99421.59;105203;1261;69180;-64
2023/07/02 02:47:32;;;;;;;2.40;1.40;;;;;;;17.50;76.97;99422.54;105251;1259;73631;-64
2023/07/02 02:50:00;;;;;;;2.20;1.30;;;;;;;17.49;77.14;99427.16;105234;1255;82383;-66
2023/07/02 02:52:29;;;;;;;5.20;1.50;;;;;;;17.50;77.29;99425.66;105226;1259;73873;-66
2023/07/02 02:54:57;;;;;;;2.20;1.30;;;;;;;17.51;77.39;99428.59;105202;1259;69144;-68
2023/07/02 02:57:26;;;;;;;1.30;1.10;;;;;;;17.52;77.58;99425.33;105293;1260;69301;-64
2023/07/02 02:59:56;;;;;;;1.80;1.40;;;;;;;17.54;77.61;99421.26;105260;1254;73833;-66
2023/07/02 03:02:25;;;;;;;1.30;1.10;;;;;;;17.56;77.93;99415.11;105231;1254;83342;-66
2023/07/02 03:04:56;;;;;;;1.00;0.80;;;;;;;17.58;78.04;99414.23;105287;1260;72991;-66
2023/07/02 03:07:25;;;;;;;1.90;1.50;;;;;;;17.60;78.05;99412.84;105273;1261;69203;-65
2023/07/02 03:09:53;;;;;;;2.10;1.10;;;;;;;17.62;78.15;99414.81;105259;1260;69191;-65
2023/07/02 03:12:25;;;;;;;3.30;1.60;;;;;;;17.64;78.22;99412.69;105210;1259;73978;-66
2023/07/02 03:14:55;;;;;;;2.00;1.30;;;;;;;17.67;78.46;99416.87;105323;1260;83064;-66
2023/07/02 03:17:24;;;;;;;4.70;1.40;;;;;;;17.70;78.47;99417.84;105337;1255;73666;-67
2023/07/02 03:19:52;;;;;;;1.70;1.10;;;;;;;17.73;78.59;99417.09;105293;1260;69309;-65
2023/07/02 03:22:21;;;;;;;1.30;1.00;;;;;;;17.75;78.75;99418.52;105304;1260;69187;-66
2023/07/02 03:24:49;;;;;;;2.10;1.20;;;;;;;17.78;78.68;99418.28;105351;1261;74087;-70
2023/07/02 03:27:17;;;;;;;1.70;1.20;;;;;;;17.81;78.74;99418.23;105282;1260;83435;-67
2023/07/02 03:29:46;;;;;;;1.60;1.10;;;;;;;17.83;78.73;99425.33;105261;1254;72977;-65
2023/07/02 03:32:15;;;;;;;1.80;1.10;;;;;;;17.85;78.86;99430.08;105185;1264;69557;-66
2023/07/02 03:34:43;;;;;;;2.80;1.30;;;;;;;17.87;78.85;99433.96;105274;1260;69145;-64
2023/07/02 03:37:12;;;;;;;1.40;0.90;;;;;;;17.90;78.85;99433.98;105164;1259;74038;-66
2023/07/02 03:39:41;;;;;;;2.50;1.30;;;;;;;17.92;78.86;99431.80;105171;1261;83329;-65
2023/07/02 03:42:09;;;;;;;3.80;1.10;;;;;;;17.95;78.98;99435.13;105328;1254;73446;-70
2023/07/02 03:44:38;;;;;;;1.70;1.20;;;;;;;17.98;78.93;99438.92;105346;1260;69108;-67
2023/07/02 03:47:08;;;;;;;2.00;1.20;;;;;;;18.00;78.87;99444.96;105373;1254;69536;-67
2023/07/02 03:49:36;;;;;;;1.70;1.30;;;;;;;18.01;78.95;99444.14;105373;1254;73748;-67
2023/07/02 03:52:05;;;;;;;1.40;1.20;;;;;;;18.04;79.07;99444.10;105251;1254;82600;-67
2023/07/02 03:54:33;;;;;;;1.50;1.30;;;;;;;18.08;79.17;99442.86;105278;1260;72406;-68
2023/07/02 03:57:02;;;;;;;1.30;1.20;;;;;;;18.12;79.08;99441.48;105333;1254;69162;-64
2023/07/02 03:59:31;;;;;;;3.40;1.50;;;;;;;18.15;79.03;99445.25;105345;1254;69213;-65
2023/07/02 04:01:59;;;;;;;2.50;1.40;;;;;;;18.18;78.90;99446.98;105422;1259;73309;-67
2023/07/02 04:04:27;;;;;;;2.70;1.30;;;;;;;18.19;78.89;99452.36;105337;1260;83653;-68
2023/07/02 04:06:56;;;;;;;1.90;1.40;;;;;;;18.21;78.90;99452.39;105313;1254;71237;-66
2023/07/02 04:09:25;;;;;;;3.40;1.20;;;;;;;18.23;78.97;99453.08;105219;1254;230939;-68
2023/07/02 04:11:53;;;;;;;1.70;1.20;;;;;;;18.25;78.83;99454.70;105268;1260;69200;-65
2023/07/02 04:14:22;;;;;;;1.90;1.20;;;;;;;18.26;78.84;99455.15;105263;1254;73238;-69
2023/07/02 04:16:50;;;;;;;2.30;1.20;;;;;;;18.27;78.84;99455.89;105195;1254;83708;-65
2023/07/02 04:19:19;;;;;;;2.50;1.20;;;;;;;18.30;78.80;99459.46;105285;1254;73692;-59
2023/07/02 04:21:47;;;;;;;1.80;1.10;;;;;;;18.32;78.84;99466.67;105197;1260;69108;-61
2023/07/02 04:24:16;;;;;;;2.10;1.30;;;;;;;18.34;78.71;99465.81;105134;1260;69180;-62
2023/07/02 04:26:45;;;;;;;2.20;1.30;;;;;;;18.34;78.72;99470.55;105224;1258;73782;-63
2023/07/02 04:29:33;;;;;;;2.50;1.00;;;;;;;18.35;78.58;99462.16;105246;1258;83762;-60
2023/07/02 04:32:02;;;;;;;3.50;1.30;;;;;;;18.37;78.69;99469.10;105410;1256;74003;-60
2023/07/02 04:34:31;;;;;;;1.80;1.00;;;;;;;18.39;78.75;99468.52;105336;1258;69205;-61
2023/07/02 04:36:59;;;;;;;1.70;1.30;;;;;;;18.43;78.77;99470.88;105237;1258;69171;-61
2023/07/02 04:39:28;;;;;;;1.90;1.20;;;;;;;18.48;78.82;99473.25;105238;1254;73034;-64
2023/07/02 04:41:56;;;;;;;3.90;1.20;;;;;;;18.54;78.74;99474.69;105224;1259;83454;-63
2023/07/02 04:44:29;;;;;;;2.10;1.40;;;;;;;18.58;78.62;99476.47;105181;1255;72315;-63
2023/07/02 04:46:59;;;;;;;2.10;1.50;;;;;;;18.61;78.34;99474.34;105230;1258;69178;-60
2023/07/02 04:49:27;;;;;;;2.80;1.30;;;;;;;18.61;78.26;99479.02;105231;1254;69091;-60
2023/07/02 04:51:55;;;;;;;1.40;1.20;;;;;;;18.65;78.21;99479.99;105235;1254;74111;-61
2023/07/02 04:54:24;;;;;;;1.90;1.30;;;;;;;18.67;78.19;99477.61;105165;1260;83473;-60
2023/07/02 04:56:52;;;;;;;1.80;1.10;;;;;;;18.72;78.26;99478.13;105326;1254;73712;-60
2023/07/02 04:59:21;;;;;;;3.90;1.50;;;;;;;18.77;78.13;99478.97;105333;1255;69194;-60
2023/07/02 05:01:49;;;;;;;2.20;1.50;;;;;;;18.82;78.09;99480.69;105373;1260;69237;-59
2023/07/02 05:04:18;;;;;;;1.20;1.10;;;;;;;18.87;78.00;99483.25;105341;1258;74016;-61
2023/07/02 05:06:46;;;;;;;2.70;1.40;;;;;;;18.91;77.75;99492.45;105275;1258;83527;-59
2023/07/02 05:09:15;;;;;;;2.50;1.40;;;;;;;18.93;77.74;99491.39;105252;1258;73392;-60
2023/07/02 05:11:43;;;;;;;2.40;1.40;;;;;;;18.96;77.67;99489.59;105237;1254;69159;-62
2023/07/02 05:14:11;;;;;;;2.30;1.30;;;;;;;18.96;77.60;99484.12;105225;1256;69138;-60
2023/07/02 05:16:40;;;;;;;1.60;1.20;;;;;;;18.96;77.43;99488.36;105354;1254;74110;-60
2023/07/02 05:19:09;;;;;;;1.50;1.20;;;;;;;18.91;77.37;99495.29;105368;1260;83450;-62
2023/07/02 05:21:37;;;;;;;2.20;1.40;;;;;;;18.87;77.45;99495.29;105345;1258;72792;-60
2023/07/02 05:24:06;;;;;;;2.60;1.40;;;;;;;18.87;77.42;99496.66;105332;1259;69652;-61
2023/07/02 05:26:35;;;;;;;1.60;1.30;;;;;;;18.90;77.63;99503.29;105394;1254;69192;-60
2023/07/02 05:29:05;;;;;;;3.60;1.40;;;;;;;18.97;77.68;99505.61;105386;1254;73774;-58
2023/07/02 05:31:34;;;;;;;3.00;1.30;;;;;;;19.04;77.58;99507.13;105370;1254;83726;-60
2023/07/02 05:34:02;;;;;;;2.80;1.40;;;;;;;19.10;77.47;99509.42;105393;1260;73920;-59
2023/07/02 05:36:31;;;;;;;2.40;1.20;;;;;;;19.16;77.20;99508.90;105133;1257;70712;-62
2023/07/02 05:38:59;;;;;;;3.60;1.60;;;;;;;19.21;77.21;99516.98;105156;1255;69156;-62
2023/07/02 05:41:30;;;;;;;1.80;1.40;;;;;;;19.26;77.13;99522.02;105351;1254;73686;-59
2023/07/02 05:43:59;;;;;;;2.90;1.40;;;;;;;19.28;77.01;99524.85;105228;1254;82719;-61
2023/07/02 05:46:28;;;;;;;1.80;1.50;;;;;;;19.29;76.82;99529.40;105257;1259;71855;-63
2023/07/02 05:48:57;;;;;;;1.50;1.30;;;;;;;19.23;76.63;99532.38;105267;1254;69082;-61
2023/07/02 05:51:25;;;;;;;3.40;1.50;;;;;;;19.15;76.65;99531.98;105380;1259;69176;-59
2023/07/02 05:53:54;;;;;;;1.50;1.30;;;;;;;19.13;76.68;99533.95;105434;1254;73771;-61
2023/07/02 05:56:22;;;;;;;3.10;1.30;;;;;;;19.12;76.78;99540.23;105376;1258;83586;-59
2023/07/02 05:58:51;;;;;;;1.90;1.70;;;;;;;19.15;76.83;99536.25;105528;1254;73720;-57
2023/07/02 06:01:19;;;;;;;1.50;1.40;;;;;;;19.21;77.05;99538.34;105460;1253;69143;-57
2023/07/02 06:03:49;;;;;;;2.40;1.40;;;;;;;19.28;76.88;99534.58;105529;1257;69213;-56
2023/07/02 06:06:18;;;;;;;2.00;1.70;;;;;;;19.33;77.03;99536.27;105438;1255;73969;-58
2023/07/02 06:08:46;;;;;;;2.00;1.40;;;;;;;19.38;76.92;99542.70;105540;1257;83577;-58
2023/07/02 06:11:15;;;;;;;2.80;1.40;;;;;;;19.39;76.49;99538.02;105453;1257;73923;-59
2023/07/02 06:13:43;;;;;;;1.60;1.40;;;;;;;19.36;76.38;99537.77;105411;1258;69139;-58
2023/07/02 06:16:12;;;;;;;1.80;1.50;;;;;;;19.35;76.32;99542.11;105544;1257;69881;-59
2023/07/02 06:18:41;;;;;;;2.10;1.30;;;;;;;19.36;76.40;99543.79;105589;1254;73898;-59
2023/07/02 06:21:09;;;;;;;1.80;1.40;;;;;;;19.35;76.32;99543.70;105443;1255;83693;-58
2023/07/02 06:23:44;;;;;;;2.60;1.30;;;;;;;19.33;76.10;99544.91;105537;1253;73415;-59
2023/07/02 06:26:12;;;;;;;3.70;1.40;;;;;;;19.31;75.72;99548.14;105739;1253;69128;-57
2023/07/02 06:28:41;;;;;;;2.30;1.20;;;;;;;19.30;75.74;99544.55;105469;1255;69087;-58
2023/07/02 06:31:10;;;;;;;2.10;1.60;;;;;;;19.37;75.89;99546.37;105452;1253;73693;-58
2023/07/02 06:33:40;;;;;;;1.90;1.20;;;;;;;19.48;75.60;99541.17;105538;1255;83505;-57
2023/07/02 06:36:08;;;;;;;1.70;1.40;;;;;;;19.59;75.31;99540.73;105462;1254;73814;-58
2023/07/02 06:38:40;;;;;;;1.90;1.30;;;;;;;19.72;75.38;99542.27;105654;1255;69199;-55
2023/07/02 06:41:09;;;;;;;2.50;1.20;;;;;;;19.84;74.80;99545.79;105472;1257;69216;-58
2023/07/02 06:43:37;;;;;;;1.40;1.30;;;;;;;19.98;74.86;99549.23;105532;1253;74198;-58
2023/07/02 06:46:06;;;;;;;2.40;1.40;;;;;;;20.13;74.49;99558.48;105576;1257;83684;-58
2023/07/02 06:48:34;;;;;;;3.50;1.80;;;;;;;20.16;73.60;99554.14;105478;1254;73659;-59
2023/07/02 06:51:03;;;;;;;2.10;1.50;;;;;;;20.14;73.08;99550.95;105410;1258;70145;-59
2023/07/02 06:53:31;;;;;;;2.10;1.50;;;;;;;20.21;72.96;99546.36;105519;1257;69122;-58
2023/07/02 06:55:59;;;;;;;2.20;1.40;;;;;;;20.30;72.68;99549.11;105395;1255;74150;-58
2023/07/02 06:58:28;;;;;;;1.90;1.40;;;;;;;20.28;72.08;99547.64;105522;1259;82947;-58
2023/07/02 07:00:56;;;;;;;8.80;1.80;;;;;;;20.27;71.92;99553.96;105381;1257;73792;-56
2023/07/02 07:03:25;;;;;;;2.30;1.60;;;;;;;20.30;71.50;99555.89;105542;1254;69240;-58
2023/07/02 07:05:54;;;;;;;2.70;1.30;;;;;;;20.28;71.04;99558.33;105565;1257;69062;-55
2023/07/02 07:08:22;;;;;;;1.60;1.50;;;;;;;20.32;70.92;99562.07;105526;1253;73794;-57
2023/07/02 07:10:50;;;;;;;4.20;1.60;;;;;;;20.38;70.86;99563.15;105371;1257;83511;-57
2023/07/02 07:13:19;;;;;;;1.70;1.50;;;;;;;20.46;70.68;99567.02;105544;1253;73687;-58
2023/07/02 07:15:48;;;;;;;2.10;1.60;;;;;;;20.47;70.24;99567.92;105450;1257;69101;-58
2023/07/02 07:18:18;;;;;;;2.20;1.90;;;;;;;20.51;70.29;99563.52;105533;1255;69279;-57
2023/07/02 07:20:47;;;;;;;2.30;1.50;;;;;;;20.57;70.24;99561.96;105515;1257;74064;-58
2023/07/02 07:23:17;;;;;;;1.70;1.60;;;;;;;20.57;69.92;99566.02;105538;1257;83623;-58
2023/07/02 07:25:45;;;;;;;1.90;1.50;;;;;;;20.52;69.42;99567.51;105479;1254;72609;-58
2023/07/02 07:28:15;;;;;;;2.00;1.50;;;;;;;20.46;69.07;99563.27;105559;1252;69174;-57
2023/07/02 07:30:44;;;;;;;2.70;1.80;;;;;;;20.44;68.92;99560.91;105571;1257;69123;-58
2023/07/02 07:33:12;;;;;;;2.00;1.50;;;;;;;20.44;68.94;99566.32;105559;1257;73105;-58
2023/07/02 07:35:40;;;;;;;1.90;1.60;;;;;;;20.45;69.07;99559.97;105771;1253;83645;-58
2023/07/02 07:38:09;;;;;;;2.10;1.90;;;;;;;20.52;69.10;99561.34;105366;1257;72900;-57
2023/07/02 07:40:37;;;;;;;2.10;1.70;;;;;;;20.58;68.98;99564.37;105556;1254;69279;-58
2023/07/02 07:43:06;;;;;;;1.80;1.60;;;;;;;20.67;68.82;99559.38;105796;1252;69254;-56
2023/07/02 07:45:34;;;;;;;2.40;1.50;;;;;;;20.78;68.76;99549.33;105593;1253;74218;-57
2023/07/02 07:48:06;;;;;;;2.20;1.80;;;;;;;20.87;68.17;99547.09;105578;1257;82522;-57
2023/07/02 07:50:34;;;;;;;1.70;1.40;;;;;;;20.99;68.11;99548.44;105526;1257;72697;-58
2023/07/02 07:53:02;;;;;;;2.40;1.60;;;;;;;21.05;67.48;99545.89;105677;1257;68968;-58
2023/07/02 07:55:31;;;;;;;1.80;1.60;;;;;;;21.01;66.74;99554.70;105500;1257;69225;-58
2023/07/02 07:57:59;;;;;;;1.60;1.40;;;;;;;20.98;66.59;99560.59;105535;1253;73168;-56
2023/07/02 08:00:28;;;;;;;1.90;1.70;;;;;;;20.92;66.15;99565.05;105391;1254;82716;-58
2023/07/02 08:02:56;;;;;;;2.40;1.60;;;;;;;20.85;65.94;99564.71;105593;1254;73889;-57
2023/07/02 08:05:25;;;;;;;1.70;1.60;;;;;;;20.83;65.93;99565.45;105636;1253;69200;-56
2023/07/02 08:07:54;;;;;;;2.40;1.60;;;;;;;20.78;65.95;99564.21;105644;1257;69146;-55
2023/07/02 08:10:23;;;;;;;1.60;1.40;;;;;;;20.76;65.84;99564.46;105776;1253;73042;-57
2023/07/02 08:12:52;;;;;;;5.50;1.50;;;;;;;20.75;65.77;99565.05;105597;1257;83551;-53
2023/07/02 08:15:21;;;;;;;1.90;1.70;;;;;;;20.73;65.25;99568.75;105569;1252;72699;-55
2023/07/02 08:17:54;;;;;;;1.70;1.50;;;;;;;20.71;65.16;99570.76;105479;1253;69071;-55
2023/07/02 08:20:23;;;;;;;1.50;1.40;;;;;;;20.72;65.00;99573.66;108270;1254;69225;-55
2023/07/02 08:22:52;;;;;;;1.50;1.40;;;;;;;20.74;65.19;99577.59;105490;1253;74342;-56
2023/07/02 08:25:21;;;;;;;2.20;1.80;;;;;;;20.78;65.35;99581.30;105523;1257;83152;-56
2023/07/02 08:27:51;;;;;;;3.80;1.60;;;;;;;20.86;65.32;99577.57;105523;1257;72812;-56
2023/07/02 08:30:19;;;;;;;1.70;1.50;;;;;;;21.05;65.31;99575.77;105421;1254;69188;-57
2023/07/02 08:32:48;;;;;;;1.70;1.40;;;;;;;21.26;64.95;99577.20;105520;1257;69633;-56
2023/07/02 08:35:17;;;;;;;2.50;1.60;;;;;;;21.49;64.88;99576.04;105558;1253;74292;-58
2023/07/02 08:37:45;;;;;;;2.00;1.60;;;;;;;21.70;64.40;99581.16;105543;1258;83444;-58
2023/07/02 08:40:21;;;;;;;3.40;1.40;;;;;;;21.84;64.19;99580.14;105487;1253;74268;-58
2023/07/02 08:42:49;;;;;;;4.20;1.80;;;;;;;21.99;63.23;99585.44;105690;1253;69105;-57
2023/07/02 08:45:18;;;;;;;2.70;1.50;;;;;;;22.10;62.46;99583.16;105351;1253;69206;-58
2023/07/02 08:47:46;;;;;;;1.60;1.30;;;;;;;22.22;61.81;99587.27;105538;1257;74167;-58
2023/07/02 08:50:15;;;;;;;2.30;1.70;;;;;;;22.32;61.37;99592.54;105591;1257;83400;-58
2023/07/02 08:52:45;;;;;;;2.60;1.50;;;;;;;22.30;60.54;99592.56;105386;1257;72961;-58
2023/07/02 08:55:13;;;;;;;2.70;1.50;;;;;;;22.21;60.25;99588.63;105532;1253;69808;-58
2023/07/02 08:57:52;;;;;;;1.70;1.30;;;;;;;22.16;60.31;99590.25;105515;1255;69134;-58
2023/07/02 09:00:21;;;;;;;2.20;1.40;;;;;;;22.10;60.42;99598.43;105488;1257;72816;-56
2023/07/02 09:02:49;;;;;;;2.90;1.80;;;;;;;22.10;60.24;99598.77;105609;1253;83489;-56
2023/07/02 09:05:18;;;;;;;3.30;1.40;;;;;;;22.15;60.54;99596.13;105684;1253;73671;-57
2023/07/02 09:07:50;;;;;;;2.40;1.40;;;;;;;22.17;59.90;99596.50;105414;1253;69214;-59
2023/07/02 09:10:28;;;;;;;1.90;1.30;;;;;;;22.07;59.60;99596.58;105472;1257;69218;-57
2023/07/02 09:13:04;;;;;;;3.30;1.40;;;;;;;22.02;59.62;99598.44;105514;1253;75036;-57
2023/07/02 09:15:39;;;;;;;1.90;1.50;;;;;;;22.07;59.51;99596.01;105515;1253;82099;-59
2023/07/02 09:18:17;;;;;;;2.00;1.20;;;;;;;22.13;59.56;99594.54;105632;1257;73399;-59
2023/07/02 09:20:45;;;;;;;1.90;1.40;;;;;;;22.16;59.37;99592.88;105700;1257;69009;-57
2023/07/02 09:23:14;;;;;;;1.80;1.30;;;;;;;22.14;59.29;99596.41;105654;1253;69078;-57
2023/07/02 09:25:43;;;;;;;1.80;1.20;;;;;;;22.10;59.15;99599.67;105648;1252;73888;-58
2023/07/02 09:28:18;;;;;;;2.90;1.50;;;;;;;22.08;58.91;99599.38;105588;1253;83475;-57
2023/07/02 09:30:57;;;;;;;2.10;1.20;;;;;;;22.02;58.66;99601.13;105519;1253;72537;-58
2023/07/02 09:33:27;;;;;;;2.60;1.90;;;;;;;22.15;58.41;99605.27;105513;1253;69200;-57
2023/07/02 09:35:55;;;;;;;3.90;1.40;;;;;;;22.32;57.78;99602.23;105511;1257;69519;-57
2023/07/02 09:38:24;;;;;;;2.70;1.40;;;;;;;22.49;57.01;99595.71;105709;1253;74009;-57
2023/07/02 09:40:53;;;;;;;1.80;1.30;;;;;;;22.63;56.47;99600.67;105462;1253;82564;-56
2023/07/02 09:43:22;;;;;;;1.60;1.40;;;;;;;22.71;56.21;99595.95;105580;1253;72644;-58
2023/07/02 09:45:52;;;;;;;3.40;1.60;;;;;;;22.72;55.77;99601.39;105546;1253;69543;-58
2023/07/02 09:48:25;;;;;;;1.60;1.30;;;;;;;22.72;55.21;99596.91;105542;1257;69213;-58
2023/07/02 09:50:54;;;;;;;5.40;1.80;;;;;;;22.73;54.89;99589.34;105517;1253;74133;-58
2023/07/02 09:53:22;;;;;;;4.00;1.60;;;;;;;22.84;55.20;99591.97;105441;1257;82688;-58
2023/07/02 09:55:51;;;;;;;1.40;1.30;;;;;;;22.94;54.90;99589.38;105442;1257;74247;-58
2023/07/02 09:58:19;;;;;;;1.60;1.40;;;;;;;23.07;54.67;99585.77;105339;1253;69249;-57
2023/07/02 10:00:47;;;;;;;2.50;1.20;;;;;;;23.16;54.07;99579.52;105323;1258;69257;-58
2023/07/02 10:03:17;;;;;;;3.40;1.50;;;;;;;23.21;53.77;99575.81;105620;1253;74235;-58
2023/07/02 10:05:45;;;;;;;1.20;1.10;;;;;;;23.36;54.03;99581.05;105315;1253;83891;-57
2023/07/02 10:08:17;;;;;;;1.80;1.20;;;;;;;23.59;53.49;99575.73;105427;1257;71842;-58
2023/07/02 10:10:46;;;;;;;3.10;1.50;;;;;;;23.66;52.69;99577.14;105547;1254;69206;-58
2023/07/02 10:13:26;;;;;;;2.10;1.60;;;;;;;23.73;52.37;99570.89;105553;1253;69174;-58
2023/07/02 10:16:02;;;;;;;1.30;1.20;;;;;;;23.89;51.74;99577.84;105477;1255;74178;-60
2023/07/02 10:18:31;;;;;;;4.00;1.40;;;;;;;24.04;52.03;99577.29;105510;1257;83752;-61
2023/07/02 10:20:59;;;;;;;3.20;1.50;;;;;;;24.14;51.44;99579.98;105386;1253;72665;-60
2023/07/02 10:23:35;;;;;;;2.30;1.50;;;;;;;24.05;50.70;99578.77;105492;1253;69645;-60
2023/07/02 10:26:19;;;;;;;1.80;1.40;;;;;;;24.19;50.70;99568.39;105462;1253;69524;-61
2023/07/02 10:28:58;;;;;;;1.70;1.20;;;;;;;24.42;50.28;99563.36;105473;1253;72788;-61
2023/07/02 10:31:26;;;;;;;2.10;1.30;;;;;;;24.60;49.90;99560.95;105544;1257;83344;-59
2023/07/02 10:33:55;;;;;;;4.50;1.40;;;;;;;24.77;49.41;99567.98;105479;1253;72476;-59
2023/07/02 10:36:25;;;;;;;1.60;1.20;;;;;;;24.82;48.26;99569.35;105455;1253;69121;-59
2023/07/02 10:38:53;;;;;;;2.00;1.40;;;;;;;24.93;47.62;99571.71;105498;1257;69164;-60
2023/07/02 10:41:26;;;;;;;3.50;1.30;;;;;;;25.06;47.26;99565.31;105449;1253;74325;-61
2023/07/02 10:44:11;;;;;;;2.40;1.60;;;;;;;25.20;46.53;99574.85;105487;1257;83107;-59
2023/07/02 10:46:47;;;;;;;2.60;1.20;;;;;;;25.38;46.71;99575.17;105338;1257;73832;-60
2023/07/02 10:49:17;;;;;;;1.40;1.10;;;;;;;25.79;46.28;99570.32;105453;1254;69225;-60
2023/07/02 10:52:03;;;;;;;1.60;1.10;;;;;;;26.23;45.88;99576.10;105450;1257;69223;-63
2023/07/02 10:54:45;;;;;;;1.10;1.00;;;;;;;26.70;45.35;99570.35;105478;1253;73165;-63
2023/07/02 10:57:16;;;;;;;2.30;1.20;;;;;;;27.20;44.67;99572.77;105438;1253;81857;-64
2023/07/02 10:59:44;;;;;;;1.30;1.00;;;;;;;27.19;43.62;99579.12;105423;1254;73067;-60
2023/07/02 11:02:12;;;;;;;2.70;1.10;;;;;;;26.97;43.13;99574.91;105509;1254;69289;-60
2023/07/02 11:04:41;;;;;;;1.30;1.00;;;;;;;26.91;43.06;99575.37;105480;1257;69898;-63
2023/07/02 11:07:14;;;;;;;2.80;1.20;;;;;;;27.13;42.93;99581.41;105411;1253;74311;-59
2023/07/02 11:09:50;;;;;;;3.10;1.20;;;;;;;26.93;42.45;99580.56;105452;1253;82585;-64
2023/07/02 11:12:30;;;;;;;2.60;1.10;;;;;;;26.87;42.36;99574.55;105430;1253;73481;-58
2023/07/02 11:15:12;;;;;;;1.20;0.80;;;;;;;27.33;42.70;99571.14;105373;1254;69135;-65
2023/07/02 11:17:41;;;;;;;2.50;1.20;;;;;;;27.83;42.20;99571.66;105308;1258;69236;-60
2023/07/02 11:20:12;;;;;;;2.40;1.20;;;;;;;27.61;41.12;99575.25;105384;1256;73799;-59
2023/07/02 11:22:41;;;;;;;3.20;1.00;;;;;;;27.21;40.51;99583.28;105424;1258;83526;-60
2023/07/02 11:25:13;;;;;;;1.50;1.10;;;;;;;26.63;39.89;99583.00;105377;1254;73556;-59
2023/07/02 11:27:41;;;;;;;1.40;0.90;;;;;;;26.21;40.33;99579.86;105386;1256;69182;-65
2023/07/02 11:30:11;;;;;;;2.70;1.30;;;;;;;26.51;40.99;99575.85;105405;1258;69191;-60
2023/07/02 11:32:51;;;;;;;;;;;;;;;26.87;40.53;99580.80;105402;1258;74286;-59
2023/07/02 11:35:21;;;;;;;2.40;1.10;;;;;;;26.96;40.61;99585.55;105377;1258;83269;-61
2023/07/02 11:37:50;;;;;;;3.60;1.40;;;;;;;27.11;40.76;99586.19;105377;1258;73772;-61